sensor_id;sensor_type;location;lat;lon;timestamp;pressure;altitude;pressure_sealevel;temperature;humidity
9139;BME280;4604;48.616;9.548;2023-05-19T00:02:02;97356.81;;;12.38;68.89
9139;BME280;4604;48.616;9.548;2023-05-19T00:04:30;97351.78;;;12.45;70.14
9139;BME280;4604;48.616;9.548;2023-05-19T00:06:59;97345.34;;;12.67;68.77
9139;BME280;4604;48.616;9.548;2023-05-19T00:09:26;97346.88;;;12.70;67.68
9139;BME280;4604;48.616;9.548;2023-05-19T00:11:53;97339.81;;;12.41;69.14
9139;BME280;4604;48.616;9.548;2023-05-19T00:14:21;97350.56;;;12.39;69.20
9139;BME280;4604;48.616;9.548;2023-05-19T00:16:48;97350.22;;;12.72;67.27
9139;BME280;4604;48.616;9.548;2023-05-19T00:19:15;97342.72;;;12.67;68.22
9139;BME280;4604;48.616;9.548;2023-05-19T00:21:41;97341.75;;;12.68;68.30
9139;BME280;4604;48.616;9.548;2023-05-19T00:24:09;97326.97;;;12.66;68.77
9139;BME280;4604;48.616;9.548;2023-05-19T00:26:36;97330.06;;;12.51;69.24
9139;BME280;4604;48.616;9.548;2023-05-19T00:29:03;97338.13;;;12.50;69.36
9139;BME280;4604;48.616;9.548;2023-05-19T00:31:29;97334.81;;;12.38;70.34
9139;BME280;4604;48.616;9.548;2023-05-19T00:33:58;97334.09;;;12.55;70.03
9139;BME280;4604;48.616;9.548;2023-05-19T00:36:24;97341.22;;;12.45;69.86
9139;BME280;4604;48.616;9.548;2023-05-19T00:38:51;97338.03;;;12.32;70.90
9139;BME280;4604;48.616;9.548;2023-05-19T00:41:19;97331.88;;;12.21;71.75
9139;BME280;4604;48.616;9.548;2023-05-19T00:43:46;97324.38;;;12.27;71.88
9139;BME280;4604;48.616;9.548;2023-05-19T00:46:13;97325.91;;;12.39;70.58
9139;BME280;4604;48.616;9.548;2023-05-19T00:48:40;97320.13;;;12.63;68.87
9139;BME280;4604;48.616;9.548;2023-05-19T00:51:09;97330.91;;;12.52;68.66
9139;BME280;4604;48.616;9.548;2023-05-19T00:53:39;97323.66;;;12.44;68.52
9139;BME280;4604;48.616;9.548;2023-05-19T00:56:06;97333.25;;;12.45;68.50
9139;BME280;4604;48.616;9.548;2023-05-19T00:58:35;97323.66;;;12.44;69.77
9139;BME280;4604;48.616;9.548;2023-05-19T01:01:03;97319.22;;;12.15;70.68
9139;BME280;4604;48.616;9.548;2023-05-19T01:03:32;97327.16;;;12.25;69.74
9139;BME280;4604;48.616;9.548;2023-05-19T01:06:00;97322.97;;;12.03;70.67
9139;BME280;4604;48.616;9.548;2023-05-19T01:08:29;97323.53;;;12.26;69.97
9139;BME280;4604;48.616;9.548;2023-05-19T01:10:57;97313.22;;;12.13;69.40
9139;BME280;4604;48.616;9.548;2023-05-19T01:13:24;97321.03;;;12.25;68.86
9139;BME280;4604;48.616;9.548;2023-05-19T01:15:58;97320.31;;;12.32;68.26
9139;BME280;4604;48.616;9.548;2023-05-19T01:18:34;97321.44;;;12.20;67.94
9139;BME280;4604;48.616;9.548;2023-05-19T01:24:28;97315.31;;;11.90;69.61
9139;BME280;4604;48.616;9.548;2023-05-19T01:27:10;97312.41;;;12.03;69.48
9139;BME280;4604;48.616;9.548;2023-05-19T01:29:51;97322.28;;;12.01;69.79
9139;BME280;4604;48.616;9.548;2023-05-19T01:32:24;97324.56;;;11.85;70.16
9139;BME280;4604;48.616;9.548;2023-05-19T01:34:51;97321.56;;;11.99;69.58
9139;BME280;4604;48.616;9.548;2023-05-19T01:37:20;97318.63;;;12.02;69.90
9139;BME280;4604;48.616;9.548;2023-05-19T01:39:49;97318.78;;;11.91;69.64
9139;BME280;4604;48.616;9.548;2023-05-19T01:42:16;97320.84;;;11.87;70.61
9139;BME280;4604;48.616;9.548;2023-05-19T01:44:43;97306.31;;;11.62;71.30
9139;BME280;4604;48.616;9.548;2023-05-19T01:47:11;97331.13;;;11.81;71.03
9139;BME280;4604;48.616;9.548;2023-05-19T01:49:39;97326.38;;;11.74;71.83
9139;BME280;4604;48.616;9.548;2023-05-19T01:52:06;97327.69;;;11.90;71.00
9139;BME280;4604;48.616;9.548;2023-05-19T01:54:32;97327.00;;;11.97;69.13
9139;BME280;4604;48.616;9.548;2023-05-19T01:57:05;97320.88;;;12.07;68.58
9139;BME280;4604;48.616;9.548;2023-05-19T01:59:41;97323.22;;;11.81;69.98
9139;BME280;4604;48.616;9.548;2023-05-19T02:02:21;97324.75;;;11.83;69.27
9139;BME280;4604;48.616;9.548;2023-05-19T02:04:56;97323.44;;;11.68;70.56
9139;BME280;4604;48.616;9.548;2023-05-19T02:07:30;97318.69;;;11.52;71.82
9139;BME280;4604;48.616;9.548;2023-05-19T02:10:04;97321.81;;;11.86;69.81
9139;BME280;4604;48.616;9.548;2023-05-19T02:12:33;97319.03;;;11.78;70.30
9139;BME280;4604;48.616;9.548;2023-05-19T02:15:04;97312.44;;;11.63;70.85
9139;BME280;4604;48.616;9.548;2023-05-19T02:17:34;97317.47;;;11.66;71.32
9139;BME280;4604;48.616;9.548;2023-05-19T02:20:03;97312.00;;;11.57;71.81
9139;BME280;4604;48.616;9.548;2023-05-19T02:22:31;97301.59;;;11.56;71.37
9139;BME280;4604;48.616;9.548;2023-05-19T02:24:58;97309.59;;;11.35;72.51
9139;BME280;4604;48.616;9.548;2023-05-19T02:27:24;97297.97;;;11.57;71.44
9139;BME280;4604;48.616;9.548;2023-05-19T02:29:51;97299.22;;;11.63;71.55
9139;BME280;4604;48.616;9.548;2023-05-19T02:32:19;97299.47;;;11.40;72.81
9139;BME280;4604;48.616;9.548;2023-05-19T02:34:46;97292.66;;;11.47;72.11
9139;BME280;4604;48.616;9.548;2023-05-19T02:37:14;97299.19;;;11.43;72.11
9139;BME280;4604;48.616;9.548;2023-05-19T02:39:42;97291.94;;;11.45;71.24
9139;BME280;4604;48.616;9.548;2023-05-19T02:42:09;97290.31;;;11.54;71.86
9139;BME280;4604;48.616;9.548;2023-05-19T02:44:36;97283.22;;;11.54;71.59
9139;BME280;4604;48.616;9.548;2023-05-19T02:47:03;97287.28;;;11.59;71.31
9139;BME280;4604;48.616;9.548;2023-05-19T02:49:30;97293.44;;;11.28;72.86
9139;BME280;4604;48.616;9.548;2023-05-19T02:52:00;97286.91;;;11.23;74.05
9139;BME280;4604;48.616;9.548;2023-05-19T02:54:28;97290.75;;;11.19;74.15
9139;BME280;4604;48.616;9.548;2023-05-19T02:56:54;97291.34;;;11.22;73.99
9139;BME280;4604;48.616;9.548;2023-05-19T02:59:21;97298.31;;;11.33;73.91
9139;BME280;4604;48.616;9.548;2023-05-19T03:01:49;97298.56;;;11.20;75.27
9139;BME280;4604;48.616;9.548;2023-05-19T03:04:15;97301.16;;;11.41;74.53
9139;BME280;4604;48.616;9.548;2023-05-19T03:06:44;97285.66;;;11.27;74.62
9139;BME280;4604;48.616;9.548;2023-05-19T03:09:11;97299.34;;;11.51;73.85
9139;BME280;4604;48.616;9.548;2023-05-19T03:11:39;97294.78;;;11.63;72.11
9139;BME280;4604;48.616;9.548;2023-05-19T03:14:06;97296.84;;;11.50;73.61
9139;BME280;4604;48.616;9.548;2023-05-19T03:16:34;97296.50;;;11.33;74.07
9139;BME280;4604;48.616;9.548;2023-05-19T03:19:01;97300.84;;;11.34;74.70
9139;BME280;4604;48.616;9.548;2023-05-19T03:21:27;97294.88;;;11.42;74.71
9139;BME280;4604;48.616;9.548;2023-05-19T03:23:54;97291.84;;;11.56;73.48
9139;BME280;4604;48.616;9.548;2023-05-19T03:26:21;97299.78;;;11.56;73.12
9139;BME280;4604;48.616;9.548;2023-05-19T03:28:50;97302.50;;;11.35;74.60
9139;BME280;4604;48.616;9.548;2023-05-19T03:31:16;97290.66;;;11.30;75.60
9139;BME280;4604;48.616;9.548;2023-05-19T03:33:43;97302.50;;;11.35;75.38
9139;BME280;4604;48.616;9.548;2023-05-19T03:36:10;97293.63;;;11.46;74.65
9139;BME280;4604;48.616;9.548;2023-05-19T03:38:36;97299.31;;;11.32;74.92
9139;BME280;4604;48.616;9.548;2023-05-19T03:41:03;97298.78;;;11.48;73.50
9139;BME280;4604;48.616;9.548;2023-05-19T03:43:32;97305.81;;;11.28;75.44
9139;BME280;4604;48.616;9.548;2023-05-19T03:46:00;97302.16;;;11.19;76.09
9139;BME280;4604;48.616;9.548;2023-05-19T03:48:26;97295.50;;;11.15;76.80
9139;BME280;4604;48.616;9.548;2023-05-19T03:50:53;97300.78;;;11.15;76.94
9139;BME280;4604;48.616;9.548;2023-05-19T03:53:20;97299.31;;;11.32;76.49
9139;BME280;4604;48.616;9.548;2023-05-19T03:55:46;97292.88;;;11.25;76.56
9139;BME280;4604;48.616;9.548;2023-05-19T03:58:14;97288.00;;;11.20;76.44
9139;BME280;4604;48.616;9.548;2023-05-19T04:00:40;97292.31;;;11.21;76.71
9139;BME280;4604;48.616;9.548;2023-05-19T04:03:08;97281.72;;;11.21;76.02
9139;BME280;4604;48.616;9.548;2023-05-19T04:05:35;97292.06;;;11.24;75.35
9139;BME280;4604;48.616;9.548;2023-05-19T04:08:02;97289.56;;;11.32;74.47
9139;BME280;4604;48.616;9.548;2023-05-19T04:10:28;97291.78;;;11.27;74.47
9139;BME280;4604;48.616;9.548;2023-05-19T04:12:55;97281.50;;;11.34;74.80
9139;BME280;4604;48.616;9.548;2023-05-19T04:15:22;97284.19;;;11.53;74.92
9139;BME280;4604;48.616;9.548;2023-05-19T04:17:48;97290.84;;;11.48;74.33
9139;BME280;4604;48.616;9.548;2023-05-19T04:20:16;97290.88;;;11.67;72.52
9139;BME280;4604;48.616;9.548;2023-05-19T04:22:43;97296.44;;;11.54;72.86
9139;BME280;4604;48.616;9.548;2023-05-19T04:25:09;97282.50;;;11.43;73.46
9139;BME280;4604;48.616;9.548;2023-05-19T04:27:36;97290.69;;;11.40;73.70
9139;BME280;4604;48.616;9.548;2023-05-19T04:30:04;97277.50;;;11.49;70.92
9139;BME280;4604;48.616;9.548;2023-05-19T04:32:30;97287.38;;;11.47;72.04
9139;BME280;4604;48.616;9.548;2023-05-19T04:34:57;97288.34;;;11.46;73.37
9139;BME280;4604;48.616;9.548;2023-05-19T04:37:25;97281.56;;;11.53;73.33
9139;BME280;4604;48.616;9.548;2023-05-19T04:39:52;97274.72;;;11.70;72.33
9139;BME280;4604;48.616;9.548;2023-05-19T04:42:19;97307.38;;;11.90;70.33
9139;BME280;4604;48.616;9.548;2023-05-19T04:44:45;97303.19;;;11.88;70.34
9139;BME280;4604;48.616;9.548;2023-05-19T04:47:13;97296.09;;;11.98;70.15
9139;BME280;4604;48.616;9.548;2023-05-19T04:49:40;97307.50;;;11.98;69.85
9139;BME280;4604;48.616;9.548;2023-05-19T04:52:07;97314.31;;;11.91;71.31
9139;BME280;4604;48.616;9.548;2023-05-19T04:54:37;97313.34;;;12.02;70.44
9139;BME280;4604;48.616;9.548;2023-05-19T04:57:06;97307.50;;;12.18;69.44
9139;BME280;4604;48.616;9.548;2023-05-19T04:59:32;97312.94;;;11.97;70.96
9139;BME280;4604;48.616;9.548;2023-05-19T05:01:59;97308.22;;;12.10;69.06
9139;BME280;4604;48.616;9.548;2023-05-19T05:04:26;97310.16;;;11.98;70.66
9139;BME280;4604;48.616;9.548;2023-05-19T05:06:52;97309.03;;;12.11;70.99
9139;BME280;4604;48.616;9.548;2023-05-19T05:09:19;97309.16;;;12.19;69.83
9139;BME280;4604;48.616;9.548;2023-05-19T05:11:48;97313.09;;;12.25;69.81
9139;BME280;4604;48.616;9.548;2023-05-19T05:14:16;97311.56;;;12.22;70.99
9139;BME280;4604;48.616;9.548;2023-05-19T05:16:43;97309.44;;;12.35;70.42
9139;BME280;4604;48.616;9.548;2023-05-19T05:19:11;97305.81;;;12.56;69.05
9139;BME280;4604;48.616;9.548;2023-05-19T05:21:38;97309.28;;;12.56;69.40
9139;BME280;4604;48.616;9.548;2023-05-19T05:24:06;97305.94;;;12.54;68.80
9139;BME280;4604;48.616;9.548;2023-05-19T05:26:34;97296.59;;;12.50;69.70
9139;BME280;4604;48.616;9.548;2023-05-19T05:29:02;97297.13;;;12.73;68.86
9139;BME280;4604;48.616;9.548;2023-05-19T05:31:29;97300.75;;;12.62;69.58
9139;BME280;4604;48.616;9.548;2023-05-19T05:33:56;97294.19;;;12.76;68.71
9139;BME280;4604;48.616;9.548;2023-05-19T05:36:23;97292.69;;;12.64;68.42
9139;BME280;4604;48.616;9.548;2023-05-19T05:38:49;97289.22;;;12.63;70.09
9139;BME280;4604;48.616;9.548;2023-05-19T05:41:16;97299.59;;;12.84;69.70
9139;BME280;4604;48.616;9.548;2023-05-19T05:43:42;97301.78;;;12.99;68.55
9139;BME280;4604;48.616;9.548;2023-05-19T05:46:10;97305.00;;;13.02;68.24
9139;BME280;4604;48.616;9.548;2023-05-19T05:48:37;97297.56;;;13.06;67.04
9139;BME280;4604;48.616;9.548;2023-05-19T05:51:06;97314.66;;;12.84;68.69
9139;BME280;4604;48.616;9.548;2023-05-19T05:53:37;97308.19;;;12.96;68.81
9139;BME280;4604;48.616;9.548;2023-05-19T05:56:06;97311.56;;;12.98;67.55
9139;BME280;4604;48.616;9.548;2023-05-19T05:58:36;97313.81;;;12.83;69.41
9139;BME280;4604;48.616;9.548;2023-05-19T06:01:04;97310.59;;;12.90;68.78
9139;BME280;4604;48.616;9.548;2023-05-19T06:03:36;97311.03;;;12.85;68.75
9139;BME280;4604;48.616;9.548;2023-05-19T06:06:03;97305.75;;;12.85;68.96
9139;BME280;4604;48.616;9.548;2023-05-19T06:08:30;97312.13;;;12.82;68.83
9139;BME280;4604;48.616;9.548;2023-05-19T06:10:57;97301.72;;;12.71;70.72
9139;BME280;4604;48.616;9.548;2023-05-19T06:13:24;97308.09;;;12.88;70.08
9139;BME280;4604;48.616;9.548;2023-05-19T06:15:51;97306.59;;;12.76;69.39
9139;BME280;4604;48.616;9.548;2023-05-19T06:18:17;97306.31;;;12.79;70.21
9139;BME280;4604;48.616;9.548;2023-05-19T06:20:46;97306.50;;;13.05;68.38
9139;BME280;4604;48.616;9.548;2023-05-19T06:23:12;97311.13;;;13.03;68.41
9139;BME280;4604;48.616;9.548;2023-05-19T06:25:39;97314.25;;;13.16;68.42
9139;BME280;4604;48.616;9.548;2023-05-19T06:28:06;97301.03;;;13.06;69.83
9139;BME280;4604;48.616;9.548;2023-05-19T06:30:33;97307.09;;;13.36;67.73
9139;BME280;4604;48.616;9.548;2023-05-19T06:33:01;97310.63;;;13.27;67.07
9139;BME280;4604;48.616;9.548;2023-05-19T06:35:28;97311.56;;;13.26;68.60
9139;BME280;4604;48.616;9.548;2023-05-19T06:37:56;97301.78;;;13.36;68.64
9139;BME280;4604;48.616;9.548;2023-05-19T06:40:22;97311.25;;;13.66;66.42
9139;BME280;4604;48.616;9.548;2023-05-19T06:42:49;97308.41;;;13.78;66.01
9139;BME280;4604;48.616;9.548;2023-05-19T06:45:16;97310.94;;;13.69;65.38
9139;BME280;4604;48.616;9.548;2023-05-19T06:47:49;97296.38;;;13.56;67.79
9139;BME280;4604;48.616;9.548;2023-05-19T06:50:16;97301.09;;;13.62;68.00
9139;BME280;4604;48.616;9.548;2023-05-19T06:52:42;97306.91;;;13.65;67.50
9139;BME280;4604;48.616;9.548;2023-05-19T06:55:12;97299.44;;;13.79;67.94
9139;BME280;4604;48.616;9.548;2023-05-19T06:57:39;97306.88;;;13.75;68.03
9139;BME280;4604;48.616;9.548;2023-05-19T07:00:07;97304.91;;;13.77;68.56
9139;BME280;4604;48.616;9.548;2023-05-19T07:02:35;97305.44;;;13.81;69.66
9139;BME280;4604;48.616;9.548;2023-05-19T07:05:06;97308.72;;;13.93;67.46
9139;BME280;4604;48.616;9.548;2023-05-19T07:07:33;97306.97;;;13.83;67.43
9139;BME280;4604;48.616;9.548;2023-05-19T07:10:03;97299.56;;;13.59;66.38
9139;BME280;4604;48.616;9.548;2023-05-19T07:12:31;97295.84;;;13.52;69.00
9139;BME280;4604;48.616;9.548;2023-05-19T07:14:58;97302.41;;;13.48;68.76
9139;BME280;4604;48.616;9.548;2023-05-19T07:17:25;97307.72;;;13.48;69.13
9139;BME280;4604;48.616;9.548;2023-05-19T07:19:51;97301.09;;;13.62;68.54
9139;BME280;4604;48.616;9.548;2023-05-19T07:22:18;97303.56;;;13.45;70.00
9139;BME280;4604;48.616;9.548;2023-05-19T07:24:45;97299.03;;;13.56;69.86
9139;BME280;4604;48.616;9.548;2023-05-19T07:27:12;97298.38;;;13.54;70.17
9139;BME280;4604;48.616;9.548;2023-05-19T07:29:40;97297.63;;;13.79;67.65
9139;BME280;4604;48.616;9.548;2023-05-19T07:32:06;97304.69;;;13.70;68.21
9139;BME280;4604;48.616;9.548;2023-05-19T07:34:33;97291.41;;;13.70;69.46
9139;BME280;4604;48.616;9.548;2023-05-19T07:37:00;97290.34;;;13.81;68.10
9139;BME280;4604;48.616;9.548;2023-05-19T07:39:27;97293.59;;;13.75;68.69
9139;BME280;4604;48.616;9.548;2023-05-19T07:41:56;97293.53;;;13.85;68.84
9139;BME280;4604;48.616;9.548;2023-05-19T07:44:23;97293.63;;;13.93;67.91
9139;BME280;4604;48.616;9.548;2023-05-19T07:46:53;97293.84;;;13.82;68.01
9139;BME280;4604;48.616;9.548;2023-05-19T07:49:20;97292.19;;;13.81;68.38
9139;BME280;4604;48.616;9.548;2023-05-19T07:51:46;97293.38;;;13.68;68.12
9139;BME280;4604;48.616;9.548;2023-05-19T07:54:13;97294.41;;;13.58;70.28
9139;BME280;4604;48.616;9.548;2023-05-19T07:56:40;97289.28;;;13.74;68.56
9139;BME280;4604;48.616;9.548;2023-05-19T07:59:07;97294.06;;;13.70;68.90
9139;BME280;4604;48.616;9.548;2023-05-19T08:01:34;97283.28;;;13.72;68.80
9139;BME280;4604;48.616;9.548;2023-05-19T08:04:02;97294.59;;;13.74;69.15
9139;BME280;4604;48.616;9.548;2023-05-19T08:06:28;97293.53;;;13.67;68.03
9139;BME280;4604;48.616;9.548;2023-05-19T08:08:56;97290.13;;;13.75;68.47
9139;BME280;4604;48.616;9.548;2023-05-19T08:11:22;97288.41;;;13.83;69.40
9139;BME280;4604;48.616;9.548;2023-05-19T08:13:49;97280.66;;;13.90;68.63
9139;BME280;4604;48.616;9.548;2023-05-19T08:16:16;97279.16;;;14.05;68.09
9139;BME280;4604;48.616;9.548;2023-05-19T08:18:43;97278.75;;;14.18;67.46
9139;BME280;4604;48.616;9.548;2023-05-19T08:21:11;97275.31;;;14.26;66.96
9139;BME280;4604;48.616;9.548;2023-05-19T08:23:38;97278.97;;;14.25;68.30
9139;BME280;4604;48.616;9.548;2023-05-19T08:26:05;97288.16;;;14.30;65.37
9139;BME280;4604;48.616;9.548;2023-05-19T08:28:32;97277.78;;;14.19;65.47
9139;BME280;4604;48.616;9.548;2023-05-19T08:30:58;97276.63;;;14.22;66.47
9139;BME280;4604;48.616;9.548;2023-05-19T08:33:25;97278.75;;;14.18;66.77
9139;BME280;4604;48.616;9.548;2023-05-19T08:35:52;97267.16;;;14.01;66.19
9139;BME280;4604;48.616;9.548;2023-05-19T08:38:21;97262.63;;;13.94;65.95
9139;BME280;4604;48.616;9.548;2023-05-19T08:40:47;97262.16;;;13.98;67.23
9139;BME280;4604;48.616;9.548;2023-05-19T08:43:14;97263.81;;;13.99;66.82
9139;BME280;4604;48.616;9.548;2023-05-19T08:45:42;97261.41;;;13.88;66.52
9139;BME280;4604;48.616;9.548;2023-05-19T08:48:12;97265.72;;;13.89;66.71
9139;BME280;4604;48.616;9.548;2023-05-19T08:50:40;97273.44;;;13.82;68.21
9139;BME280;4604;48.616;9.548;2023-05-19T08:53:11;97262.31;;;13.97;67.77
9139;BME280;4604;48.616;9.548;2023-05-19T08:55:50;97263.00;;;13.99;65.60
9139;BME280;4604;48.616;9.548;2023-05-19T08:58:20;97264.72;;;14.08;66.76
9139;BME280;4604;48.616;9.548;2023-05-19T09:00:48;97258.56;;;14.25;65.62
9139;BME280;4604;48.616;9.548;2023-05-19T09:03:17;97265.78;;;14.15;65.99
9139;BME280;4604;48.616;9.548;2023-05-19T09:05:44;97260.63;;;14.13;66.97
9139;BME280;4604;48.616;9.548;2023-05-19T09:08:11;97265.25;;;14.29;66.48
9139;BME280;4604;48.616;9.548;2023-05-19T09:10:38;97263.66;;;14.19;66.09
9139;BME280;4604;48.616;9.548;2023-05-19T09:13:06;97251.53;;;13.98;65.31
9139;BME280;4604;48.616;9.548;2023-05-19T09:15:33;97253.13;;;13.91;65.77
9139;BME280;4604;48.616;9.548;2023-05-19T09:18:08;97248.06;;;13.98;67.40
9139;BME280;4604;48.616;9.548;2023-05-19T09:20:36;97256.53;;;14.01;66.83
9139;BME280;4604;48.616;9.548;2023-05-19T09:23:04;97250.78;;;13.88;67.63
9139;BME280;4604;48.616;9.548;2023-05-19T09:25:32;97255.84;;;13.99;67.53
9139;BME280;4604;48.616;9.548;2023-05-19T09:27:59;97258.06;;;13.86;68.51
9139;BME280;4604;48.616;9.548;2023-05-19T09:30:27;97260.88;;;14.02;67.84
9139;BME280;4604;48.616;9.548;2023-05-19T09:32:54;97251.53;;;13.98;68.87
9139;BME280;4604;48.616;9.548;2023-05-19T09:35:21;97258.00;;;13.96;64.88
9139;BME280;4604;48.616;9.548;2023-05-19T09:37:47;97261.88;;;13.83;67.13
9139;BME280;4604;48.616;9.548;2023-05-19T09:40:14;97254.78;;;13.92;66.63
9139;BME280;4604;48.616;9.548;2023-05-19T09:42:41;97258.31;;;13.93;66.84
9139;BME280;4604;48.616;9.548;2023-05-19T09:45:09;97255.19;;;14.15;63.70
9139;BME280;4604;48.616;9.548;2023-05-19T09:47:39;97247.53;;;14.12;62.41
9139;BME280;4604;48.616;9.548;2023-05-19T09:50:07;97252.81;;;13.94;61.47
9139;BME280;4604;48.616;9.548;2023-05-19T09:52:35;97259.44;;;14.08;60.60
9139;BME280;4604;48.616;9.548;2023-05-19T09:55:03;97255.41;;;13.86;62.10
9139;BME280;4604;48.616;9.548;2023-05-19T09:57:34;97249.88;;;13.97;62.20
9139;BME280;4604;48.616;9.548;2023-05-19T10:00:04;97244.56;;;14.15;60.50
9139;BME280;4604;48.616;9.548;2023-05-19T10:02:45;97248.75;;;14.00;62.48
9139;BME280;4604;48.616;9.548;2023-05-19T10:05:14;97250.91;;;14.04;64.44
9139;BME280;4604;48.616;9.548;2023-05-19T10:07:42;97250.16;;;14.30;62.15
9139;BME280;4604;48.616;9.548;2023-05-19T10:10:11;97248.34;;;14.12;61.44
9139;BME280;4604;48.616;9.548;2023-05-19T10:12:39;97252.56;;;14.23;61.53
9139;BME280;4604;48.616;9.548;2023-05-19T10:15:11;97247.28;;;14.49;59.64
9139;BME280;4604;48.616;9.548;2023-05-19T10:17:39;97246.09;;;14.44;60.18
9139;BME280;4604;48.616;9.548;2023-05-19T10:20:10;97246.03;;;14.53;59.61
9139;BME280;4604;48.616;9.548;2023-05-19T10:22:38;97246.88;;;14.54;60.13
9139;BME280;4604;48.616;9.548;2023-05-19T10:25:06;97254.50;;;14.57;58.82
9139;BME280;4604;48.616;9.548;2023-05-19T10:27:35;97250.72;;;14.60;58.93
9139;BME280;4604;48.616;9.548;2023-05-19T10:30:07;97255.50;;;14.56;59.52
9139;BME280;4604;48.616;9.548;2023-05-19T10:32:37;97251.25;;;14.45;59.07
9139;BME280;4604;48.616;9.548;2023-05-19T10:35:27;97255.38;;;14.40;59.93
9139;BME280;4604;48.616;9.548;2023-05-19T10:38:05;97239.94;;;14.43;60.19
9139;BME280;4604;48.616;9.548;2023-05-19T10:40:37;97252.13;;;14.28;60.29
9139;BME280;4604;48.616;9.548;2023-05-19T10:43:14;97257.38;;;14.20;60.58
9139;BME280;4604;48.616;9.548;2023-05-19T10:45:46;97257.06;;;14.23;59.82
9139;BME280;4604;48.616;9.548;2023-05-19T10:48:14;97251.84;;;14.13;61.33
9139;BME280;4604;48.616;9.548;2023-05-19T10:50:44;97265.25;;;14.29;60.83
9139;BME280;4604;48.616;9.548;2023-05-19T10:53:15;97255.09;;;14.25;61.92
9139;BME280;4604;48.616;9.548;2023-05-19T10:55:49;97264.66;;;14.62;60.25
9139;BME280;4604;48.616;9.548;2023-05-19T10:58:49;97254.25;;;14.50;59.85
9139;BME280;4604;48.616;9.548;2023-05-19T11:01:18;97255.91;;;14.69;58.57
9139;BME280;4604;48.616;9.548;2023-05-19T11:03:46;97252.75;;;14.48;59.78
9139;BME280;4604;48.616;9.548;2023-05-19T11:06:19;97247.72;;;14.63;59.78
9139;BME280;4604;48.616;9.548;2023-05-19T11:08:51;97259.72;;;14.67;59.80
9139;BME280;4604;48.616;9.548;2023-05-19T11:11:18;97251.16;;;14.55;59.63
9139;BME280;4604;48.616;9.548;2023-05-19T11:13:46;97253.44;;;14.50;59.55
9139;BME280;4604;48.616;9.548;2023-05-19T11:16:13;97248.44;;;14.47;60.27
9139;BME280;4604;48.616;9.548;2023-05-19T11:18:40;97259.22;;;14.45;60.45
9139;BME280;4604;48.616;9.548;2023-05-19T11:21:06;97269.16;;;14.43;59.90
9139;BME280;4604;48.616;9.548;2023-05-19T11:23:37;97259.47;;;14.34;61.15
9139;BME280;4604;48.616;9.548;2023-05-19T11:26:05;97247.44;;;14.48;59.89
9139;BME280;4604;48.616;9.548;2023-05-19T11:28:33;97256.56;;;14.45;60.28
9139;BME280;4604;48.616;9.548;2023-05-19T11:31:01;97265.16;;;14.39;61.25
9139;BME280;4604;48.616;9.548;2023-05-19T11:33:28;97255.41;;;14.48;61.18
9139;BME280;4604;48.616;9.548;2023-05-19T11:35:56;97258.78;;;14.76;60.09
9139;BME280;4604;48.616;9.548;2023-05-19T11:38:23;97253.97;;;14.80;58.53
9139;BME280;4604;48.616;9.548;2023-05-19T11:40:53;97256.97;;;14.76;60.62
9139;BME280;4604;48.616;9.548;2023-05-19T11:43:22;97256.63;;;14.80;60.17
9139;BME280;4604;48.616;9.548;2023-05-19T11:45:48;97259.84;;;14.91;59.74
9139;BME280;4604;48.616;9.548;2023-05-19T11:48:15;97259.78;;;15.09;59.37
9139;BME280;4604;48.616;9.548;2023-05-19T11:50:45;97255.59;;;15.07;61.00
9139;BME280;4604;48.616;9.548;2023-05-19T11:53:12;97251.03;;;15.17;58.06
9139;BME280;4604;48.616;9.548;2023-05-19T11:55:41;97255.31;;;15.10;58.99
9139;BME280;4604;48.616;9.548;2023-05-19T11:58:10;97253.81;;;15.07;59.63
9139;BME280;4604;48.616;9.548;2023-05-19T12:00:38;97250.97;;;15.09;60.75
9139;BME280;4604;48.616;9.548;2023-05-19T12:03:06;97245.59;;;15.35;59.21
9139;BME280;4604;48.616;9.548;2023-05-19T12:05:35;97239.72;;;15.23;58.78
9139;BME280;4604;48.616;9.548;2023-05-19T12:08:02;97246.13;;;15.47;59.15
9139;BME280;4604;48.616;9.548;2023-05-19T12:10:30;97246.75;;;15.40;57.94
9139;BME280;4604;48.616;9.548;2023-05-19T12:12:58;97247.16;;;15.54;58.30
9139;BME280;4604;48.616;9.548;2023-05-19T12:15:27;97239.19;;;15.62;57.38
9139;BME280;4604;48.616;9.548;2023-05-19T12:17:56;97238.84;;;15.57;57.34
9139;BME280;4604;48.616;9.548;2023-05-19T12:20:24;97242.13;;;15.43;57.39
9139;BME280;4604;48.616;9.548;2023-05-19T12:22:51;97246.81;;;15.57;58.14
9139;BME280;4604;48.616;9.548;2023-05-19T12:25:19;97240.63;;;15.40;57.69
9139;BME280;4604;48.616;9.548;2023-05-19T12:27:45;97248.75;;;15.38;57.97
9139;BME280;4604;48.616;9.548;2023-05-19T12:30:15;97247.69;;;15.15;59.35
9139;BME280;4604;48.616;9.548;2023-05-19T12:32:44;97244.91;;;15.25;57.99
9139;BME280;4604;48.616;9.548;2023-05-19T12:35:14;97246.88;;;15.23;59.90
9139;BME280;4604;48.616;9.548;2023-05-19T12:37:41;97249.47;;;15.49;58.68
9139;BME280;4604;48.616;9.548;2023-05-19T12:40:08;97245.66;;;15.51;58.99
9139;BME280;4604;48.616;9.548;2023-05-19T12:42:35;97251.31;;;15.65;58.86
9139;BME280;4604;48.616;9.548;2023-05-19T12:45:03;97243.41;;;15.73;57.65
9139;BME280;4604;48.616;9.548;2023-05-19T12:47:31;97249.22;;;15.84;57.19
9139;BME280;4604;48.616;9.548;2023-05-19T12:50:04;97245.88;;;15.74;57.33
9139;BME280;4604;48.616;9.548;2023-05-19T12:52:33;97249.00;;;15.61;57.91
9139;BME280;4604;48.616;9.548;2023-05-19T12:55:01;97243.28;;;15.48;57.50
9139;BME280;4604;48.616;9.548;2023-05-19T12:57:33;97235.16;;;15.41;57.84
9139;BME280;4604;48.616;9.548;2023-05-19T13:00:01;97242.94;;;15.35;59.38
9139;BME280;4604;48.616;9.548;2023-05-19T13:02:32;97245.78;;;15.41;59.65
9139;BME280;4604;48.616;9.548;2023-05-19T13:04:59;97238.31;;;15.45;57.84
9139;BME280;4604;48.616;9.548;2023-05-19T13:07:27;97239.22;;;15.19;59.30
9139;BME280;4604;48.616;9.548;2023-05-19T13:09:53;97242.84;;;15.10;60.68
9139;BME280;4604;48.616;9.548;2023-05-19T13:12:20;97241.44;;;15.40;59.34
9139;BME280;4604;48.616;9.548;2023-05-19T13:14:47;97230.94;;;15.23;59.15
9139;BME280;4604;48.616;9.548;2023-05-19T13:17:13;97233.94;;;15.28;59.30
9139;BME280;4604;48.616;9.548;2023-05-19T13:19:40;97234.94;;;15.27;58.51
9139;BME280;4604;48.616;9.548;2023-05-19T13:22:07;97224.94;;;15.29;59.49
9139;BME280;4604;48.616;9.548;2023-05-19T13:24:35;97229.78;;;15.33;58.65
9139;BME280;4604;48.616;9.548;2023-05-19T13:27:01;97224.94;;;15.20;59.54
9139;BME280;4604;48.616;9.548;2023-05-19T13:29:29;97223.97;;;15.30;59.53
9139;BME280;4604;48.616;9.548;2023-05-19T13:31:56;97225.94;;;15.28;58.30